Time;durP1;ratioP1;P1;durP2;ratioP2;P2;SDS_P1;SDS_P2;PMS_P1;PMS_P2;Temp;Humidity;BMP_temperature;BMP_pressure;BME280_temperature;BME280_humidity;BME280_pressure;Samples;Min_cycle;Max_cycle;Signal;HPM_P1;HPM_P2
2022/09/22 00:00:42;;;;;;;5.97;3.80;;;;;;;5.80;100.00;96930.00;5021631;28;20060;-75
2022/09/22 00:03:08;;;;;;;7.30;4.30;;;;;;;5.78;100.00;96922.28;5024623;28;20102;-75
2022/09/22 00:05:34;;;;;;;6.13;3.40;;;;;;;5.78;100.00;96921.47;5021923;28;20049;-74
2022/09/22 00:08:00;;;;;;;8.93;4.67;;;;;;;5.67;100.00;96920.47;5023045;28;20045;-74
2022/09/22 00:10:27;;;;;;;9.43;4.20;;;;;;;5.60;100.00;96918.41;5024371;28;20116;-74
2022/09/22 00:12:54;;;;;;;5.73;3.30;;;;;;;5.60;100.00;96911.44;5022792;28;20037;-74
2022/09/22 00:15:20;;;;;;;9.07;3.93;;;;;;;5.66;100.00;96910.13;5036715;28;20048;-75
2022/09/22 00:17:46;;;;;;;5.93;3.63;;;;;;;5.64;100.00;96906.81;5026031;28;20037;-76
2022/09/22 00:20:12;;;;;;;7.07;3.87;;;;;;;5.60;100.00;96913.19;5020060;28;20040;-74
2022/09/22 00:22:39;;;;;;;5.87;3.63;;;;;;;5.54;100.00;96908.44;5018983;28;21674;-74
2022/09/22 00:25:07;;;;;;;6.50;3.50;;;;;;;5.55;100.00;96900.50;5010797;28;20044;-74
2022/09/22 00:27:33;;;;;;;7.33;3.83;;;;;;;5.58;100.00;96904.66;5026999;28;20516;-75
2022/09/22 00:29:59;;;;;;;6.97;3.83;;;;;;;5.50;100.00;96901.75;5046324;28;20037;-74
2022/09/22 00:32:25;;;;;;;6.23;3.90;;;;;;;5.49;100.00;96906.16;5056405;28;20033;-74
2022/09/22 00:34:51;;;;;;;6.60;3.73;;;;;;;5.42;100.00;96908.38;5057273;28;20032;-75
2022/09/22 00:37:17;;;;;;;7.80;4.30;;;;;;;5.36;100.00;96906.19;5070003;28;20040;-75
2022/09/22 00:39:43;;;;;;;9.97;4.70;;;;;;;5.35;100.00;96903.72;5056068;28;20560;-75
2022/09/22 00:42:13;;;;;;;8.50;4.40;;;;;;;5.33;100.00;96901.22;5053950;28;20040;-74
2022/09/22 00:44:42;;;;;;;6.43;4.50;;;;;;;5.32;100.00;96898.72;5056650;28;20512;-75
2022/09/22 00:47:29;;;;;;;6.77;4.07;;;;;;;5.35;100.00;96901.09;5054447;28;20040;-75
2022/09/22 00:50:10;;;;;;;7.93;4.07;;;;;;;5.32;100.00;96903.94;5073410;28;20484;-75
2022/09/22 00:52:48;;;;;;;7.43;4.17;;;;;;;5.25;100.00;96908.75;5056147;28;20029;-74
2022/09/22 00:55:24;;;;;;;7.67;3.73;;;;;;;5.29;100.00;96909.34;5055266;28;20449;-75
2022/09/22 00:57:52;;;;;;;7.07;4.50;;;;;;;5.25;100.00;96898.31;5053816;28;20123;-74
2022/09/22 01:00:18;;;;;;;8.20;4.13;;;;;;;5.26;100.00;96892.16;5029861;28;20151;-75
2022/09/22 01:02:55;;;;;;;8.20;4.40;;;;;;;5.26;100.00;96893.94;5003739;28;20032;-75
2022/09/22 01:05:23;;;;;;;6.80;3.83;;;;;;;5.17;100.00;96885.00;5025458;28;20033;-75
2022/09/22 01:07:49;;;;;;;8.50;3.87;;;;;;;5.17;100.00;96895.44;5025197;28;20039;-75
2022/09/22 01:10:16;;;;;;;7.30;4.40;;;;;;;5.16;100.00;96888.53;5025298;28;20114;-74
2022/09/22 01:12:54;;;;;;;7.03;3.57;;;;;;;5.19;100.00;96885.72;5019710;28;20028;-74
2022/09/22 01:15:49;;;;;;;8.73;4.13;;;;;;;5.11;100.00;96888.06;5023007;28;20044;-74
2022/09/22 01:18:29;;;;;;;10.83;5.60;;;;;;;5.14;100.00;96891.28;5023843;28;20032;-75
2022/09/22 01:21:10;;;;;;;7.73;4.00;;;;;;;5.13;100.00;96893.97;5024584;28;20029;-75
2022/09/22 01:23:36;;;;;;;6.27;3.70;;;;;;;5.07;100.00;96889.22;5025091;28;20040;-75
2022/09/22 01:26:02;;;;;;;6.70;4.20;;;;;;;5.08;100.00;96883.06;5021802;28;20092;-74
2022/09/22 01:28:58;;;;;;;6.83;3.60;;;;;;;5.06;100.00;96887.53;5022472;28;20024;-74
2022/09/22 01:31:43;;;;;;;6.30;3.80;;;;;;;5.05;100.00;96886.69;5017541;28;20039;-74
2022/09/22 01:34:27;;;;;;;9.13;3.73;;;;;;;4.97;100.00;96894.25;4990537;28;20139;-74
2022/09/22 01:37:05;;;;;;;6.23;3.60;;;;;;;4.94;100.00;96890.06;4972083;28;20032;-75
2022/09/22 01:39:42;;;;;;;9.00;4.13;;;;;;;4.87;100.00;96891.44;4972262;28;20036;-74
2022/09/22 01:42:23;;;;;;;6.60;3.97;;;;;;;4.90;100.00;96888.63;4977088;28;20045;-74
2022/09/22 01:44:55;;;;;;;5.73;3.67;;;;;;;4.95;100.00;96893.50;4950087;28;20492;-74
2022/09/22 01:47:35;;;;;;;5.80;3.50;;;;;;;5.01;100.00;96887.03;4945786;28;20043;-74
2022/09/22 01:50:11;;;;;;;6.13;3.43;;;;;;;4.97;100.00;96889.03;4949649;28;20043;-74
2022/09/22 01:52:39;;;;;;;7.40;4.07;;;;;;;4.95;100.00;96890.91;4951563;28;20024;-74
2022/09/22 01:55:15;;;;;;;7.20;4.03;;;;;;;4.96;100.00;96885.59;4949088;28;20036;-74
2022/09/22 01:58:04;;;;;;;7.40;3.70;;;;;;;4.85;100.00;96880.28;4943872;28;20040;-74
2022/09/22 02:00:31;;;;;;;7.33;4.07;;;;;;;4.77;100.00;96887.81;4972766;28;20125;-75
2022/09/22 02:03:39;;;;;;;7.40;3.80;;;;;;;4.82;100.00;96890.94;5013765;28;20524;-74
2022/09/22 02:06:39;;;;;;;7.40;3.83;;;;;;;4.83;100.00;96890.00;5044270;28;20036;-75
2022/09/22 02:09:08;;;;;;;5.83;3.67;;;;;;;4.80;100.00;96892.00;5027930;28;20393;-75
2022/09/22 02:11:34;;;;;;;6.97;3.63;;;;;;;4.73;100.00;96889.00;5037070;28;20077;-75
2022/09/22 02:14:01;;;;;;;8.17;3.87;;;;;;;4.74;100.00;96888.03;5059468;28;20142;-75
2022/09/22 02:16:27;;;;;;;7.80;4.53;;;;;;;4.83;100.00;96887.41;5073867;28;20538;-75
2022/09/22 02:18:56;;;;;;;6.53;3.70;;;;;;;4.83;100.00;96894.38;5057607;28;20025;-75
2022/09/22 02:21:24;;;;;;;6.47;3.77;;;;;;;4.78;100.00;96889.47;5058562;28;20029;-74
2022/09/22 02:23:50;;;;;;;7.57;4.03;;;;;;;4.81;100.00;96897.09;5055227;28;20513;-75
2022/09/22 02:26:28;;;;;;;6.47;3.67;;;;;;;4.70;100.00;96887.44;5060353;28;20037;-74
2022/09/22 02:29:01;;;;;;;9.40;3.67;;;;;;;4.76;100.00;96885.31;5054448;28;20025;-76
2022/09/22 02:31:30;;;;;;;6.20;3.50;;;;;;;4.76;100.00;96886.16;5061412;28;20404;-74
2022/09/22 02:33:56;;;;;;;6.13;3.57;;;;;;;4.73;100.00;96881.16;5056429;28;20063;-74
2022/09/22 02:36:27;;;;;;;6.60;3.60;;;;;;;4.75;100.00;96879.28;5073214;28;20057;-75
2022/09/22 02:39:00;;;;;;;6.60;3.67;;;;;;;4.72;100.00;96874.28;5057330;28;20469;-75
2022/09/22 02:41:38;;;;;;;6.43;4.05;;;;;;;4.71;100.00;96873.44;5057243;28;20028;-75
2022/09/22 02:44:53;;;;;;;7.07;3.60;;;;;;;4.68;100.00;96875.44;5053760;28;20094;-74
2022/09/22 02:47:31;;;;;;;6.07;3.20;;;;;;;4.62;100.00;96873.25;5050854;28;20048;-74
2022/09/22 02:49:58;;;;;;;7.63;3.80;;;;;;;4.60;100.00;96867.34;5069536;28;20056;-75
2022/09/22 02:52:24;;;;;;;6.30;3.80;;;;;;;4.50;100.00;96864.53;5055897;28;20115;-75
2022/09/22 02:54:53;;;;;;;6.03;3.67;;;;;;;4.44;100.00;96868.38;5071763;28;20429;-74
2022/09/22 02:57:19;;;;;;;6.60;3.70;;;;;;;4.47;100.00;96875.16;5054423;28;20598;-74
2022/09/22 02:59:45;;;;;;;5.90;3.37;;;;;;;4.42;100.00;96872.84;5048429;28;20176;-74
2022/09/22 03:02:11;;;;;;;8.53;3.70;;;;;;;4.33;100.00;96865.69;5040542;28;20502;-74
2022/09/22 03:04:36;;;;;;;6.27;3.67;;;;;;;4.21;100.00;96874.34;5024152;28;20462;-75
2022/09/22 03:07:03;;;;;;;6.23;3.80;;;;;;;4.23;100.00;96867.25;5021968;28;21521;-75
2022/09/22 03:09:28;;;;;;;6.70;3.83;;;;;;;4.22;100.00;96871.59;5025203;28;20299;-75
2022/09/22 03:11:54;;;;;;;6.73;3.93;;;;;;;4.10;100.00;96876.84;5020473;28;20563;-74
2022/09/22 03:14:19;;;;;;;6.53;3.50;;;;;;;4.01;100.00;96878.28;5023546;28;20040;-73
2022/09/22 03:16:45;;;;;;;9.63;3.67;;;;;;;4.03;100.00;96886.00;5023114;28;21342;-73
2022/09/22 03:19:11;;;;;;;7.53;3.80;;;;;;;3.91;100.00;96872.84;5022751;28;20025;-73
2022/09/22 03:21:37;;;;;;;6.70;3.63;;;;;;;3.91;100.00;96872.84;5023522;28;20029;-73
2022/09/22 03:24:03;;;;;;;6.40;3.40;;;;;;;3.85;100.00;96875.84;5019987;28;21251;-73
2022/09/22 03:26:29;;;;;;;9.93;3.87;;;;;;;3.89;100.00;96874.75;5022992;28;21304;-74
2022/09/22 03:28:54;;;;;;;6.73;3.77;;;;;;;3.90;100.00;96873.78;5021743;28;20048;-73
2022/09/22 03:31:20;;;;;;;7.37;4.60;;;;;;;3.87;100.00;96871.41;5049677;28;20151;-73
2022/09/22 03:33:46;;;;;;;6.57;3.50;;;;;;;3.79;100.00;96871.09;5022368;28;20210;-74
2022/09/22 03:36:12;;;;;;;7.83;3.60;;;;;;;3.68;100.00;96878.75;5019712;28;20040;-74
2022/09/22 03:38:38;;;;;;;5.93;3.67;;;;;;;3.79;100.00;96876.28;5023436;28;20064;-73
2022/09/22 03:41:05;;;;;;;7.33;3.40;;;;;;;3.68;100.00;96876.16;5023884;28;20107;-73
2022/09/22 03:43:30;;;;;;;6.73;3.33;;;;;;;3.66;100.00;96883.22;4981413;28;20032;-73
2022/09/22 03:45:58;;;;;;;5.77;3.40;;;;;;;3.66;100.00;96876.25;4986544;28;20036;-73
2022/09/22 03:48:25;;;;;;;7.03;3.97;;;;;;;3.63;100.00;96879.06;4985938;28;20036;-74
2022/09/22 03:50:51;;;;;;;6.30;3.83;;;;;;;3.61;100.00;96875.72;4986936;28;20551;-73
2022/09/22 03:53:18;;;;;;;7.10;3.90;;;;;;;3.60;100.00;96881.03;4987328;28;20024;-74
2022/09/22 03:55:43;;;;;;;6.40;3.53;;;;;;;3.74;100.00;96873.97;4987908;28;20028;-73
2022/09/22 03:58:09;;;;;;;6.43;4.07;;;;;;;3.71;100.00;96873.34;4987731;28;20614;-73
2022/09/22 04:00:35;;;;;;;8.87;3.83;;;;;;;3.64;100.00;96874.69;4991035;28;20029;-73
2022/09/22 04:03:00;;;;;;;7.43;3.50;;;;;;;3.54;100.00;96872.69;4972583;28;20060;-74
2022/09/22 04:05:26;;;;;;;6.33;4.10;;;;;;;3.57;100.00;96876.03;4974835;28;20033;-73
2022/09/22 04:07:52;;;;;;;8.03;3.70;;;;;;;3.58;100.00;96875.91;4988540;28;20383;-74
2022/09/22 04:10:17;;;;;;;6.03;3.57;;;;;;;3.59;100.00;96871.53;4992441;28;22762;-74
2022/09/22 04:12:43;;;;;;;6.43;3.80;;;;;;;3.58;100.00;96882.88;5010777;28;20063;-73
2022/09/22 04:15:09;;;;;;;8.23;4.30;;;;;;;3.62;100.00;96876.53;5026565;28;21708;-74
2022/09/22 04:17:35;;;;;;;5.67;3.33;;;;;;;3.62;100.00;96873.94;5010912;28;20441;-73
2022/09/22 04:20:03;;;;;;;6.87;3.80;;;;;;;3.60;100.00;96879.25;5022369;28;20070;-73
2022/09/22 04:22:29;;;;;;;6.30;3.57;;;;;;;3.69;100.00;96872.59;5025466;28;20173;-73
2022/09/22 04:24:54;;;;;;;6.43;4.23;;;;;;;3.65;100.00;96871.97;5024844;28;20029;-73
2022/09/22 04:27:20;;;;;;;8.40;3.90;;;;;;;3.72;100.00;96878.47;5021871;28;20055;-74
2022/09/22 04:29:46;;;;;;;6.50;3.90;;;;;;;3.80;100.00;96871.91;5022924;28;20064;-74
2022/09/22 04:32:13;;;;;;;6.13;3.90;;;;;;;3.80;100.00;96862.34;5042050;28;20045;-74
2022/09/22 04:34:38;;;;;;;6.63;3.57;;;;;;;3.83;100.00;96866.50;5050468;28;20098;-74
2022/09/22 04:37:04;;;;;;;7.30;3.77;;;;;;;3.80;100.00;96864.94;5051363;28;20040;-73
2022/09/22 04:39:30;;;;;;;7.07;3.97;;;;;;;3.85;100.00;96868.06;5070035;28;20044;-73
2022/09/22 04:41:56;;;;;;;6.63;3.67;;;;;;;3.85;100.00;96868.06;5052915;28;20622;-73
2022/09/22 04:44:22;;;;;;;7.37;4.00;;;;;;;3.81;100.00;96871.81;5033241;28;20070;-73
2022/09/22 04:46:49;;;;;;;6.47;4.03;;;;;;;3.79;100.00;96865.88;5023098;28;20033;-74
2022/09/22 04:49:15;;;;;;;7.27;3.93;;;;;;;3.79;100.00;96863.28;5024482;28;20661;-73
2022/09/22 04:51:40;;;;;;;7.60;4.67;;;;;;;3.81;100.00;96866.59;5023038;28;20041;-74
2022/09/22 04:54:06;;;;;;;6.53;3.90;;;;;;;3.72;100.00;96860.25;5021907;28;20036;-74
2022/09/22 04:56:32;;;;;;;7.87;4.47;;;;;;;3.70;100.00;96862.09;5018498;28;20111;-73
2022/09/22 04:58:58;;;;;;;8.50;5.20;;;;;;;3.64;100.00;96869.47;5022466;28;20025;-73
2022/09/22 05:01:26;;;;;;;8.10;4.83;;;;;;;3.60;100.00;96870.63;5019999;28;20036;-73
2022/09/22 05:03:52;;;;;;;7.93;5.00;;;;;;;3.61;100.00;96874.88;5021405;28;20089;-74
2022/09/22 05:06:18;;;;;;;8.87;5.57;;;;;;;3.52;100.00;96873.72;5021776;28;20033;-73
2022/09/22 05:08:44;;;;;;;11.03;5.03;;;;;;;3.54;100.00;96874.44;5025962;28;21679;-73
2022/09/22 05:11:11;;;;;;;12.70;5.37;;;;;;;3.51;100.00;96875.47;5026882;28;21656;-74
2022/09/22 05:13:39;;;;;;;7.40;4.40;;;;;;;3.45;100.00;96875.88;5036168;28;20028;-74
2022/09/22 05:16:06;;;;;;;6.87;4.40;;;;;;;3.50;100.00;96883.41;5041031;28;20041;-74
2022/09/22 05:18:32;;;;;;;7.80;4.70;;;;;;;3.71;100.00;96876.78;5055533;28;20375;-74
2022/09/22 05:20:58;;;;;;;8.40;4.47;;;;;;;3.77;100.00;96867.75;5061429;28;20035;-73
2022/09/22 05:23:24;;;;;;;7.10;4.50;;;;;;;4.01;100.00;96863.50;5065350;28;20066;-74
2022/09/22 05:25:50;;;;;;;7.13;4.80;;;;;;;4.18;100.00;96859.75;5051689;28;20040;-74
2022/09/22 05:28:15;;;;;;;8.90;5.10;;;;;;;4.38;100.00;96863.59;5070868;28;20111;-73
2022/09/22 05:30:41;;;;;;;7.13;3.80;;;;;;;4.80;100.00;96858.13;5060440;28;20039;-74
2022/09/22 05:33:07;;;;;;;6.60;4.00;;;;;;;4.80;100.00;96858.94;5067668;28;20036;-73
2022/09/22 05:35:32;;;;;;;6.43;3.70;;;;;;;5.10;100.00;96853.34;5062620;28;20386;-74
2022/09/22 05:37:58;;;;;;;7.77;4.10;;;;;;;5.17;100.00;96856.34;5067034;28;20647;-74
2022/09/22 05:40:25;;;;;;;9.37;4.10;;;;;;;5.32;100.00;96855.19;5068830;28;20032;-74
2022/09/22 05:42:52;;;;;;;6.50;3.33;;;;;;;5.72;100.00;96852.28;5067645;28;20060;-74
2022/09/22 05:45:19;;;;;;;4.83;2.80;;;;;;;6.23;100.00;96851.09;5065877;28;20086;-74
2022/09/22 05:47:45;;;;;;;7.00;3.60;;;;;;;6.32;100.00;96845.19;5063845;28;20123;-74
2022/09/22 05:50:13;;;;;;;7.40;3.27;;;;;;;6.18;100.00;96845.41;5062366;28;20051;-74
2022/09/22 05:52:39;;;;;;;6.57;3.23;;;;;;;6.38;100.00;96847.34;5046654;28;20032;-74
2022/09/22 05:55:06;;;;;;;5.40;3.40;;;;;;;6.55;100.00;96848.66;5066545;28;20064;-74
2022/09/22 05:57:32;;;;;;;6.27;3.23;;;;;;;6.93;100.00;96839.56;5061959;28;20021;-74
2022/09/22 05:59:58;;;;;;;6.53;3.27;;;;;;;7.12;100.00;96842.38;5062737;28;20028;-74
2022/09/22 06:02:24;;;;;;;7.60;4.13;;;;;;;7.28;100.00;96837.59;5071288;28;20117;-74
2022/09/22 06:04:51;;;;;;;5.93;2.77;;;;;;;7.41;100.00;96836.56;5071372;28;20055;-74
2022/09/22 06:07:21;;;;;;;4.93;3.00;;;;;;;7.23;100.00;96839.72;5064973;28;20055;-74
2022/09/22 06:09:48;;;;;;;7.67;3.60;;;;;;;7.77;100.00;96844.03;5068435;28;20035;-75
2022/09/22 06:12:14;;;;;;;7.60;2.90;;;;;;;7.80;100.00;96828.06;5067810;28;20386;-74
2022/09/22 06:14:39;;;;;;;5.23;2.70;;;;;;;8.29;100.00;96827.53;5070638;28;20033;-74
2022/09/22 06:17:09;;;;;;;7.90;3.17;;;;;;;8.69;100.00;96836.28;5066273;28;20375;-74
2022/09/22 06:19:35;;;;;;;7.37;3.23;;;;;;;8.43;100.00;96837.69;5067963;28;20032;-74
2022/09/22 06:22:01;;;;;;;4.30;2.47;;;;;;;8.34;100.00;96827.97;5065410;28;20094;-74
2022/09/22 06:24:28;;;;;;;6.00;3.03;;;;;;;8.66;100.00;96835.72;5068161;28;20021;-74
2022/09/22 06:26:53;;;;;;;5.67;3.13;;;;;;;8.29;100.00;96838.03;5067085;28;20037;-74
2022/09/22 06:29:19;;;;;;;5.73;2.90;;;;;;;7.92;100.00;96841.13;5067556;28;20036;-74
2022/09/22 06:31:44;;;;;;;6.33;2.70;;;;;;;9.27;100.00;96832.16;5067317;28;20028;-74
2022/09/22 06:34:11;;;;;;;5.17;2.60;;;;;;;8.96;100.00;96837.47;5051001;28;20069;-74
2022/09/22 06:36:39;;;;;;;4.33;2.17;;;;;;;9.89;100.00;96837.00;5065156;28;20029;-74
2022/09/22 06:39:05;;;;;;;4.73;2.60;;;;;;;9.52;100.00;96836.03;5067210;28;20103;-74
2022/09/22 06:41:32;;;;;;;5.23;3.13;;;;;;;9.98;100.00;96827.44;5067644;28;20031;-74
2022/09/22 06:44:01;;;;;;;7.17;2.60;;;;;;;9.87;100.00;96828.41;5055905;28;20144;-75
2022/09/22 06:46:30;;;;;;;6.13;2.50;;;;;;;10.50;100.00;96825.25;5066240;28;20032;-74
2022/09/22 06:48:58;;;;;;;6.97;2.73;;;;;;;10.05;100.00;96831.16;5067301;28;20032;-74
2022/09/22 06:51:26;;;;;;;6.20;2.47;;;;;;;10.49;100.00;96818.31;5059983;28;20055;-74
2022/09/22 06:53:56;;;;;;;9.17;4.07;;;;;;;11.41;100.00;96822.69;5067209;28;20028;-74
2022/09/22 06:56:24;;;;;;;4.97;2.40;;;;;;;10.36;100.00;96826.56;5064594;28;20474;-75
2022/09/22 06:58:50;;;;;;;5.80;3.03;;;;;;;10.10;100.00;96828.94;5053787;28;20780;-74
2022/09/22 07:01:17;;;;;;;4.77;2.93;;;;;;;11.04;100.00;96828.06;5057311;28;20037;-75
2022/09/22 07:03:45;;;;;;;5.10;2.60;;;;;;;11.44;100.00;96824.19;5067855;28;20050;-75
2022/09/22 07:06:17;;;;;;;5.87;3.47;;;;;;;11.68;100.00;96828.84;5062072;28;20040;-74
2022/09/22 07:08:47;;;;;;;7.15;3.17;;;;;;;11.46;100.00;96828.31;5054173;28;20675;-75
2022/09/22 07:11:22;;;;;;;5.07;2.47;;;;;;;11.35;100.00;96825.91;5065441;28;20064;-74
2022/09/22 07:13:50;;;;;;;5.60;2.80;;;;;;;11.92;100.00;96817.72;5060993;28;20402;-74
2022/09/22 07:16:17;;;;;;;4.57;2.50;;;;;;;12.09;100.00;96810.75;5056772;28;20385;-74
2022/09/22 07:18:45;;;;;;;5.97;2.70;;;;;;;12.65;100.00;96804.97;5066664;28;20490;-75
2022/09/22 07:21:23;;;;;;;7.23;2.70;;;;;;;11.89;100.00;96812.75;5061725;28;20083;-74
2022/09/22 07:23:53;;;;;;;5.93;2.73;;;;;;;12.68;100.00;96809.94;5065753;28;20045;-75
2022/09/22 07:26:27;;;;;;;9.30;4.47;;;;;;;12.86;100.00;96807.19;5066491;28;20814;-75
2022/09/22 07:28:55;;;;;;;4.03;2.57;;;;;;;12.58;100.00;96803.94;5065607;28;20032;-76
2022/09/22 07:31:22;;;;;;;4.93;2.50;;;;;;;12.24;100.00;96810.03;5061415;28;20036;-75
2022/09/22 07:33:48;;;;;;;4.30;2.50;;;;;;;12.65;100.00;96812.88;5062139;28;20036;-75
2022/09/22 07:36:17;;;;;;;4.90;2.63;;;;;;;12.41;100.00;96813.59;5057342;28;20032;-75
2022/09/22 07:38:45;;;;;;;7.13;2.60;;;;;;;12.46;100.00;96811.31;5061795;28;20061;-75
2022/09/22 07:41:13;;;;;;;4.23;2.67;;;;;;;13.33;100.00;96806.69;5056346;28;20179;-74
2022/09/22 07:43:40;;;;;;;7.20;2.90;;;;;;;13.24;100.00;96804.16;5069242;28;20035;-74
2022/09/22 07:46:07;;;;;;;4.20;2.43;;;;;;;13.34;100.00;96808.34;5060370;28;20021;-75
2022/09/22 07:48:36;;;;;;;7.30;2.73;;;;;;;13.35;100.00;96812.66;5068938;28;20040;-75
2022/09/22 07:51:03;;;;;;;5.70;2.63;;;;;;;13.24;100.00;96817.38;5065803;28;20020;-74
2022/09/22 07:53:30;;;;;;;5.83;2.83;;;;;;;14.23;100.00;96809.34;5061117;28;20036;-75
2022/09/22 07:56:05;;;;;;;5.17;2.90;;;;;;;14.71;100.00;96815.53;5060302;28;20547;-75
2022/09/22 07:58:31;;;;;;;4.83;2.57;;;;;;;15.11;100.00;96802.31;5066676;28;20146;-75
2022/09/22 08:00:57;;;;;;;4.33;2.70;;;;;;;13.74;100.00;96825.25;5067422;28;20070;-75
2022/09/22 08:03:24;;;;;;;6.23;2.50;;;;;;;15.67;100.00;96817.06;5067455;28;20095;-76
2022/09/22 08:05:50;;;;;;;6.37;2.80;;;;;;;16.09;100.00;96810.41;5064017;28;20121;-75
2022/09/22 08:08:16;;;;;;;30.87;21.20;;;;;;;17.40;88.27;96801.81;5061511;28;20098;-74
2022/09/22 08:10:41;;;;;;;7.50;3.40;;;;;;;16.76;90.62;96800.81;5061652;28;20059;-75
2022/09/22 08:13:08;;;;;;;4.97;2.55;;;;;;;16.81;92.53;96806.41;5075354;28;20035;-74
2022/09/22 08:15:34;;;;;;;3.05;1.80;;;;;;;16.73;91.69;96800.16;5070802;28;20051;-75
2022/09/22 08:18:03;;;;;;;5.22;2.45;;;;;;;17.12;88.70;96800.88;5065657;28;20032;-75
2022/09/22 08:20:29;;;;;;;6.30;2.25;;;;;;;17.95;77.37;96794.19;5058131;28;20039;-75
2022/09/22 08:23:01;;;;;;;7.03;2.28;;;;;;;17.18;84.63;96800.94;5066311;28;20028;-75
2022/09/22 08:25:28;;;;;;;4.50;2.65;;;;;;;16.42;92.32;96805.63;5064783;28;20082;-75
2022/09/22 08:27:53;;;;;;;3.20;1.73;;;;;;;18.00;79.97;96799.75;5056693;28;20039;-75
2022/09/22 08:30:19;;;;;;;4.57;2.35;;;;;;;18.29;78.85;96803.25;5050189;28;20036;-75
2022/09/22 08:32:45;;;;;;;5.15;2.22;;;;;;;17.97;76.70;96799.31;5053349;28;20039;-75
2022/09/22 08:35:11;;;;;;;5.57;1.85;;;;;;;18.64;72.64;96788.09;5051696;28;20051;-75
2022/09/22 08:37:37;;;;;;;4.15;1.83;;;;;;;18.43;67.49;96789.00;5052229;28;20491;-75
2022/09/22 08:40:04;;;;;;;3.65;2.10;;;;;;;17.83;75.27;96793.88;5059436;28;20123;-75
2022/09/22 08:42:32;;;;;;;3.92;1.70;;;;;;;18.90;62.09;96784.78;5060134;28;20041;-76
2022/09/22 08:45:07;;;;;;;2.80;1.40;;;;;;;19.09;61.29;96780.56;5058156;28;20063;-75
2022/09/22 08:53:25;;;;;;;3.08;1.60;;;;;;;19.00;60.94;96785.25;5055790;28;20032;-76
2022/09/22 08:56:20;;;;;;;3.42;1.42;;;;;;;18.70;60.48;96787.31;5056827;28;20245;-76
2022/09/22 08:59:01;;;;;;;3.08;1.15;;;;;;;19.65;55.97;96783.03;5055990;28;20075;-76
2022/09/22 09:01:34;;;;;;;3.33;1.13;;;;;;;19.72;51.84;96775.03;5019677;28;20712;-75
2022/09/22 09:04:18;;;;;;;;;;;;;;;18.83;51.30;96782.09;5023139;28;20838;-75
2022/09/22 09:06:56;;;;;;;2.13;0.82;;;;;;;18.84;54.37;96780.25;5039661;28;20039;-75
2022/09/22 09:09:50;;;;;;;2.00;1.17;;;;;;;20.21;50.29;96768.44;5057521;28;20028;-75
2022/09/22 09:12:40;;;;;;;1.38;0.80;;;;;;;19.24;53.87;96780.41;5061991;28;20021;-75
2022/09/22 09:15:30;;;;;;;1.83;0.82;;;;;;;18.57;58.07;96776.59;5053003;28;20674;-76
2022/09/22 09:18:01;;;;;;;1.63;0.80;;;;;;;19.67;53.47;96774.81;5063777;28;20040;-75
2022/09/22 09:20:30;;;;;;;2.08;0.90;;;;;;;20.91;47.60;96769.56;5069260;28;20682;-75
2022/09/22 09:22:58;;;;;;;5.38;1.23;;;;;;;18.70;55.35;96773.19;5067186;28;20486;-76
2022/09/22 09:25:43;;;;;;;0.85;0.60;;;;;;;19.48;49.21;96785.22;5067912;28;20036;-75
2022/09/22 09:28:22;;;;;;;3.80;0.82;;;;;;;19.62;48.13;96777.25;5066497;28;20040;-75
2022/09/22 09:30:51;;;;;;;1.98;0.93;;;;;;;19.72;46.26;96769.69;5069371;28;20028;-76
2022/09/22 09:33:32;;;;;;;1.45;0.90;;;;;;;19.92;48.81;96772.34;5064375;28;20041;-76
2022/09/22 09:35:58;;;;;;;1.70;1.00;;;;;;;20.80;47.85;96764.06;5061038;28;20514;-76
2022/09/22 09:38:29;;;;;;;2.13;0.95;;;;;;;21.47;46.57;96760.06;5056764;28;20107;-75
2022/09/22 09:41:17;;;;;;;3.35;1.08;;;;;;;20.79;46.81;96767.75;5067014;28;20028;-75
2022/09/22 09:43:44;;;;;;;2.50;0.90;;;;;;;21.17;44.50;96770.50;5062826;28;20067;-75
2022/09/22 09:46:46;;;;;;;4.13;1.75;;;;;;;20.80;46.31;96767.53;5067369;28;20024;-76
2022/09/22 09:49:14;;;;;;;4.40;1.85;;;;;;;21.52;44.44;96765.59;5068777;28;20086;-75
2022/09/22 09:51:44;;;;;;;3.67;0.95;;;;;;;21.80;43.54;96764.41;5054165;28;20036;-76
2022/09/22 09:54:14;;;;;;;2.17;1.00;;;;;;;21.27;45.29;96765.50;5064034;28;20124;-75
2022/09/22 09:57:05;;;;;;;1.52;0.80;;;;;;;21.29;44.58;96763.41;5053000;28;20071;-75
2022/09/22 10:02:20;;;;;;;2.80;0.88;;;;;;;20.04;46.93;96760.03;5067942;28;20050;-75
2022/09/22 10:04:55;;;;;;;1.00;0.73;;;;;;;20.12;46.24;96761.66;5069681;28;20089;-75
2022/09/22 10:07:26;;;;;;;0.98;0.70;;;;;;;20.75;44.78;96762.00;5068361;28;20081;-75
2022/09/22 10:09:53;;;;;;;2.03;0.85;;;;;;;20.70;44.16;96759.16;5067087;28;20537;-75
2022/09/22 10:12:22;;;;;;;1.35;0.85;;;;;;;22.08;41.41;96750.56;5062897;28;20062;-76
2022/09/22 10:14:51;;;;;;;2.47;1.27;;;;;;;20.84;43.46;96755.41;5067649;28;20070;-76
2022/09/22 10:17:41;;;;;;;3.35;1.27;;;;;;;21.06;42.34;96747.06;5066407;28;20043;-75
2022/09/22 10:20:25;;;;;;;6.45;3.00;;;;;;;21.65;39.95;96746.75;5068176;28;20436;-76
2022/09/22 10:22:55;;;;;;;5.45;1.23;;;;;;;20.80;42.51;96748.84;5066680;28;20044;-75
2022/09/22 10:25:32;;;;;;;1.80;0.93;;;;;;;20.35;44.03;96740.69;5069270;28;20037;-76
2022/09/22 10:28:01;;;;;;;3.03;0.95;;;;;;;19.64;44.95;96751.19;5054223;28;20086;-76
2022/09/22 10:30:36;;;;;;;1.55;0.70;;;;;;;19.96;43.35;96741.56;5067245;28;20158;-75
2022/09/22 10:33:07;;;;;;;1.17;0.68;;;;;;;19.07;46.31;96747.94;5067515;28;20397;-75
2022/09/22 10:35:35;;;;;;;1.58;0.85;;;;;;;17.85;48.89;96751.94;5056184;28;20119;-76
2022/09/22 10:38:12;;;;;;;2.80;1.00;;;;;;;18.30;48.13;96751.66;5056829;28;20101;-75
2022/09/22 10:40:41;;;;;;;2.55;1.20;;;;;;;19.20;45.45;96748.00;5043986;28;20040;-76
2022/09/22 10:43:21;;;;;;;2.10;1.00;;;;;;;19.22;45.90;96753.16;5039285;28;20032;-76
2022/09/22 10:46:04;;;;;;;1.85;0.85;;;;;;;20.39;43.70;96741.13;5008662;28;20058;-75
2022/09/22 10:48:43;;;;;;;1.75;1.08;;;;;;;17.24;50.05;96764.00;4995249;28;20906;-76
2022/09/22 10:51:21;;;;;;;1.33;0.90;;;;;;;18.53;46.46;96751.38;5011153;28;20033;-77
2022/09/22 10:53:56;;;;;;;2.92;0.90;;;;;;;17.70;47.54;96750.34;4984434;28;20028;-78
2022/09/22 10:56:33;;;;;;;2.08;0.98;;;;;;;18.72;44.70;96750.69;4984175;28;20473;-77
2022/09/22 10:59:17;;;;;;;2.17;1.10;;;;;;;19.85;42.43;96739.50;4986524;28;20079;-76
2022/09/22 11:01:45;;;;;;;5.25;2.03;;;;;;;19.89;43.73;96736.22;4966909;28;21344;-77
2022/09/22 11:04:48;;;;;;;3.83;1.77;;;;;;;19.71;45.54;96734.16;5003208;28;20020;-78
2022/09/22 11:13:45;;;;;;;2.65;1.27;;;;;;;20.70;42.03;96738.59;5047898;28;20051;-77
2022/09/22 11:16:34;;;;;;;3.78;1.00;;;;;;;20.02;41.30;96730.88;5055979;28;20131;-77
2022/09/22 11:19:17;;;;;;;3.05;1.27;;;;;;;20.34;42.77;96731.03;5064500;28;20060;-77
2022/09/22 11:22:17;;;;;;;1.45;1.02;;;;;;;19.91;43.38;96730.69;5061850;28;20754;-77
2022/09/22 11:25:04;;;;;;;1.38;0.88;;;;;;;19.64;43.84;96732.50;5054088;28;20440;-77
2022/09/22 11:27:59;;;;;;;2.78;1.17;;;;;;;18.69;46.57;96732.41;5053510;28;20453;-77
2022/09/22 11:30:25;;;;;;;3.63;1.05;;;;;;;19.62;44.28;96734.56;5053240;28;20518;-77
2022/09/22 11:33:08;;;;;;;3.63;1.15;;;;;;;19.71;42.61;96728.00;5057037;28;20170;-77
2022/09/22 11:36:06;;;;;;;1.33;0.90;;;;;;;20.36;43.65;96726.31;5070309;28;20161;-78
2022/09/22 11:39:08;;;;;;;1.55;0.90;;;;;;;21.79;40.51;96717.22;5059971;28;20028;-77
2022/09/22 11:41:50;;;;;;;2.40;1.33;;;;;;;21.04;41.46;96720.56;5065830;28;20378;-77
2022/09/22 11:44:27;;;;;;;2.95;1.27;;;;;;;21.17;40.95;96717.00;5056613;28;20033;-77
2022/09/22 11:47:06;;;;;;;1.92;1.20;;;;;;;22.14;40.70;96720.22;5054703;28;20032;-78
2022/09/22 11:50:01;;;;;;;2.47;1.08;;;;;;;20.32;41.46;96729.59;5054538;28;20134;-77
2022/09/22 11:52:58;;;;;;;2.33;1.10;;;;;;;20.68;41.13;96710.41;5055979;28;20971;-77
2022/09/22 11:55:27;;;;;;;2.35;1.00;;;;;;;19.92;42.30;96711.81;5056285;28;20033;-77
2022/09/22 11:57:58;;;;;;;2.38;1.20;;;;;;;20.63;41.24;96710.25;5059442;28;20402;-77
2022/09/22 12:00:28;;;;;;;3.47;1.48;;;;;;;19.96;43.24;96709.53;5063124;28;20048;-77
2022/09/22 12:02:55;;;;;;;7.97;1.58;;;;;;;19.36;44.39;96701.47;5063333;28;20040;-77
2022/09/22 12:05:26;;;;;;;2.63;1.30;;;;;;;19.02;45.83;96703.25;5065536;28;20470;-77